Time;durP1;ratioP1;P1;durP2;ratioP2;P2;SDS_P1;SDS_P2;PMS_P1;PMS_P2;Temp;Humidity;BMP_temperature;BMP_pressure;BME280_temperature;BME280_humidity;BME280_pressure;Samples;Min_cycle;Max_cycle;Signal;HPM_P1;HPM_P2
2021/01/15 00:00:06;;;;;;;1.00;0.90;;;20.60;43.30;;;;;;6217551;28;20036;-71
2021/01/15 00:03:06;;;;;;;2.08;1.00;;;20.60;43.30;;;;;;6216971;28;20045;-71
2021/01/15 00:06:07;;;;;;;1.30;1.00;;;20.60;43.40;;;;;;6217456;28;20026;-71
2021/01/15 00:09:08;;;;;;;2.15;0.93;;;20.60;43.40;;;;;;6217144;28;20044;-70
2021/01/15 00:12:12;;;;;;;1.15;0.93;;;20.60;43.50;;;;;;6216381;28;20076;-71
2021/01/15 00:15:13;;;;;;;1.25;0.88;;;20.60;43.70;;;;;;6217041;28;20042;-71
2021/01/15 00:18:13;;;;;;;0.98;0.90;;;20.60;43.60;;;;;;6216339;28;20550;-71
2021/01/15 00:21:22;;;;;;;1.27;0.80;;;20.50;43.60;;;;;;6216991;28;20053;-71
2021/01/15 00:24:23;;;;;;;2.22;0.93;;;20.50;43.40;;;;;;6216379;28;20705;-70
2021/01/15 00:27:23;;;;;;;2.03;0.90;;;20.60;43.60;;;;;;6216930;28;20048;-71
2021/01/15 00:30:24;;;;;;;1.50;1.13;;;20.60;43.60;;;;;;6238822;28;20052;-71
2021/01/15 00:33:24;;;;;;;1.15;0.85;;;20.50;43.50;;;;;;6228147;28;20037;-71
2021/01/15 00:36:25;;;;;;;1.10;0.80;;;20.50;43.50;;;;;;6217254;28;20081;-71
2021/01/15 00:39:25;;;;;;;1.10;0.90;;;20.50;43.50;;;;;;6216391;28;20042;-71
2021/01/15 00:42:26;;;;;;;1.35;1.08;;;20.50;43.50;;;;;;6216730;28;20030;-70
2021/01/15 00:45:26;;;;;;;0.93;0.82;;;20.50;43.40;;;;;;6216226;28;20034;-71
2021/01/15 00:48:27;;;;;;;1.00;0.80;;;20.50;43.50;;;;;;6216426;28;20249;-71
2021/01/15 00:51:27;;;;;;;1.13;0.90;;;20.50;43.60;;;;;;6216448;28;20049;-71
2021/01/15 00:54:28;;;;;;;1.60;1.00;;;20.50;43.60;;;;;;6216360;28;20108;-71
2021/01/15 00:57:28;;;;;;;1.00;0.80;;;20.50;43.60;;;;;;6217303;28;20105;-71
2021/01/15 01:00:30;;;;;;;0.73;0.68;;;20.50;43.60;;;;;;6216524;28;20037;-71
2021/01/15 01:03:30;;;;;;;2.60;0.82;;;20.50;43.50;;;;;;6215896;28;20034;-71
2021/01/15 01:06:31;;;;;;;1.42;0.98;;;20.50;43.60;;;;;;6214712;28;20029;-71
2021/01/15 01:09:32;;;;;;;1.48;0.90;;;20.50;43.50;;;;;;6214375;28;20037;-71
2021/01/15 01:12:38;;;;;;;1.00;0.80;;;20.50;43.70;;;;;;6214944;28;21650;-71
2021/01/15 01:15:39;;;;;;;0.77;0.75;;;20.50;43.60;;;;;;6216144;28;20034;-71
2021/01/15 01:18:39;;;;;;;0.93;0.82;;;20.50;43.60;;;;;;6223007;28;20030;-71
2021/01/15 01:21:40;;;;;;;0.80;0.80;;;20.50;43.70;;;;;;6215805;28;20563;-71
2021/01/15 01:24:40;;;;;;;1.00;0.90;;;20.50;43.50;;;;;;6216293;28;20496;-71
2021/01/15 01:27:41;;;;;;;0.95;0.85;;;20.40;43.80;;;;;;6216587;28;20098;-71
2021/01/15 01:30:42;;;;;;;1.25;0.82;;;20.40;44.00;;;;;;6219549;28;20033;-71
2021/01/15 01:33:44;;;;;;;1.27;0.77;;;20.40;43.60;;;;;;6220385;28;20113;-70
2021/01/15 01:36:44;;;;;;;1.40;0.88;;;20.40;43.90;;;;;;6220703;28;20068;-70
2021/01/15 01:39:45;;;;;;;1.85;1.02;;;20.40;44.00;;;;;;6220256;28;20045;-71
2021/01/15 01:42:45;;;;;;;1.35;0.90;;;20.40;43.80;;;;;;6221020;28;20045;-71
2021/01/15 01:45:46;;;;;;;1.20;0.80;;;20.40;43.80;;;;;;6220431;28;20081;-72
2021/01/15 01:48:46;;;;;;;1.10;0.73;;;20.40;44.50;;;;;;6220651;28;20061;-71
2021/01/15 01:51:49;;;;;;;1.45;0.95;;;20.40;43.90;;;;;;6219896;28;20044;-71
2021/01/15 01:54:50;;;;;;;1.05;0.77;;;20.40;43.80;;;;;;6219586;28;20519;-71
2021/01/15 01:57:50;;;;;;;0.68;0.68;;;20.40;43.90;;;;;;6220497;28;20046;-71
2021/01/15 02:00:57;;;;;;;1.00;0.88;;;20.40;43.80;;;;;;6220022;28;20504;-71
2021/01/15 02:04:02;;;;;;;1.40;0.80;;;20.30;44.30;;;;;;6220281;28;20034;-71
2021/01/15 02:07:03;;;;;;;2.05;1.13;;;20.40;43.80;;;;;;6219840;28;20463;-71
2021/01/15 02:10:06;;;;;;;1.27;0.90;;;20.40;43.90;;;;;;6219987;28;20045;-71
2021/01/15 02:13:21;;;;;;;1.05;0.80;;;20.40;44.10;;;;;;6220034;28;20157;-71
2021/01/15 02:16:24;;;;;;;1.45;0.90;;;20.40;43.90;;;;;;6219884;28;20481;-71
2021/01/15 02:19:36;;;;;;;0.80;0.73;;;20.30;43.70;;;;;;6219881;28;20582;-71
2021/01/15 02:22:53;;;;;;;0.80;0.70;;;20.30;43.90;;;;;;6218922;28;20034;-71
2021/01/15 02:26:05;;;;;;;1.23;0.82;;;20.30;44.00;;;;;;6219751;28;20036;-71
2021/01/15 02:29:15;;;;;;;1.40;0.73;;;20.30;43.90;;;;;;6219912;28;20071;-71
2021/01/15 02:32:36;;;;;;;1.02;0.77;;;20.30;43.90;;;;;;6218398;28;20034;-71
2021/01/15 02:35:58;;;;;;;1.27;0.90;;;20.30;43.90;;;;;;6219364;28;20037;-71
2021/01/15 02:39:08;;;;;;;0.90;0.80;;;20.30;44.00;;;;;;6219257;28;20049;-71
2021/01/15 02:42:09;;;;;;;1.13;0.90;;;20.30;44.00;;;;;;6216573;28;20045;-71
2021/01/15 02:45:12;;;;;;;1.45;0.90;;;20.30;44.10;;;;;;6219027;28;20109;-71
2021/01/15 02:48:15;;;;;;;1.15;0.77;;;20.30;44.70;;;;;;6219080;28;20037;-71
2021/01/15 02:51:16;;;;;;;1.00;0.80;;;20.30;44.10;;;;;;6218627;28;20508;-71
2021/01/15 02:54:17;;;;;;;1.00;0.90;;;20.30;44.20;;;;;;6218870;28;20053;-71
2021/01/15 02:57:17;;;;;;;0.52;0.52;;;20.30;44.00;;;;;;6218325;28;20091;-71
2021/01/15 03:00:21;;;;;;;0.77;0.77;;;20.30;44.10;;;;;;6219380;28;20388;-71
2021/01/15 03:03:21;;;;;;;0.80;0.77;;;20.30;44.00;;;;;;6218025;28;20036;-71
2021/01/15 03:06:32;;;;;;;1.20;0.80;;;20.30;44.10;;;;;;6218604;28;20113;-71
2021/01/15 03:09:46;;;;;;;0.85;0.70;;;20.30;43.80;;;;;;6218774;28;20038;-71
2021/01/15 03:12:49;;;;;;;1.93;0.80;;;20.30;44.10;;;;;;6218284;28;20034;-70
2021/01/15 03:15:51;;;;;;;0.85;0.70;;;20.30;44.00;;;;;;6218413;28;20512;-71
2021/01/15 03:18:55;;;;;;;1.10;0.73;;;20.30;44.10;;;;;;6218363;28;20038;-71
2021/01/15 03:21:56;;;;;;;0.75;0.70;;;20.30;44.30;;;;;;6218142;28;20145;-71
2021/01/15 03:24:58;;;;;;;1.30;0.90;;;20.30;44.20;;;;;;6217599;28;20037;-71
2021/01/15 03:27:59;;;;;;;0.80;0.70;;;20.30;44.30;;;;;;6218176;28;20288;-71
2021/01/15 03:30:59;;;;;;;1.30;0.80;;;20.30;44.20;;;;;;6217956;28;20049;-71
2021/01/15 03:34:00;;;;;;;0.90;0.70;;;20.30;44.30;;;;;;6217556;28;20088;-71
2021/01/15 03:37:01;;;;;;;0.90;0.77;;;20.20;44.10;;;;;;6216436;28;20034;-71
2021/01/15 03:40:03;;;;;;;0.68;0.68;;;20.20;44.20;;;;;;6218053;28;20038;-72
2021/01/15 03:43:11;;;;;;;0.88;0.82;;;20.30;44.20;;;;;;6216782;28;20037;-71
2021/01/15 03:46:12;;;;;;;0.73;0.70;;;20.20;44.00;;;;;;6217972;28;20045;-71
2021/01/15 03:49:12;;;;;;;0.88;0.68;;;20.20;44.10;;;;;;6217618;28;20034;-71
2021/01/15 03:52:13;;;;;;;1.17;0.73;;;20.20;44.00;;;;;;6216470;28;20469;-71
2021/01/15 03:55:14;;;;;;;1.05;0.70;;;20.20;43.90;;;;;;6217606;28;20500;-71
2021/01/15 03:58:15;;;;;;;0.90;0.75;;;20.20;44.20;;;;;;6217450;28;20392;-71
2021/01/15 04:01:15;;;;;;;0.98;0.80;;;20.20;44.20;;;;;;6217193;28;20270;-71
2021/01/15 04:04:16;;;;;;;0.50;0.50;;;20.20;44.40;;;;;;6216497;28;20653;-71
2021/01/15 04:07:16;;;;;;;0.80;0.70;;;20.20;44.20;;;;;;6217054;28;20030;-70
2021/01/15 04:10:18;;;;;;;1.17;0.70;;;20.20;44.30;;;;;;6217210;28;20455;-71
2021/01/15 04:13:19;;;;;;;0.80;0.60;;;20.20;44.30;;;;;;6216611;28;20097;-71
2021/01/15 04:16:19;;;;;;;0.82;0.80;;;20.20;44.30;;;;;;6217178;28;20037;-71
2021/01/15 04:19:22;;;;;;;1.17;0.77;;;20.20;44.30;;;;;;6216737;28;20037;-71
2021/01/15 04:22:23;;;;;;;1.05;0.80;;;20.20;44.30;;;;;;6216595;28;20415;-72
2021/01/15 04:25:24;;;;;;;1.20;0.95;;;20.20;44.30;;;;;;6217466;28;20032;-71
2021/01/15 04:28:24;;;;;;;1.13;0.80;;;20.20;44.40;;;;;;6217534;28;20455;-71
2021/01/15 04:31:25;;;;;;;0.80;0.80;;;20.20;44.30;;;;;;6216661;28;20042;-71
2021/01/15 04:34:25;;;;;;;1.10;0.80;;;20.20;44.20;;;;;;6216679;28;20034;-70
2021/01/15 04:37:26;;;;;;;1.10;0.75;;;20.20;44.30;;;;;;6216989;28;20034;-71
2021/01/15 04:40:27;;;;;;;1.08;0.80;;;20.10;43.80;;;;;;6213247;28;20388;-71
2021/01/15 04:43:28;;;;;;;0.77;0.70;;;20.10;44.10;;;;;;6215284;28;20038;-71
2021/01/15 04:46:29;;;;;;;0.77;0.50;;;20.10;44.20;;;;;;6217085;28;20121;-71
2021/01/15 04:49:30;;;;;;;0.77;0.73;;;20.10;44.40;;;;;;6216873;28;20041;-70
2021/01/15 04:52:40;;;;;;;0.95;0.80;;;20.10;44.10;;;;;;6216872;28;20037;-71
2021/01/15 04:55:42;;;;;;;1.25;0.90;;;20.10;44.20;;;;;;6216714;28;20447;-71
2021/01/15 04:58:47;;;;;;;0.80;0.60;;;20.10;44.10;;;;;;6217087;28;20046;-71
2021/01/15 05:01:49;;;;;;;1.67;0.70;;;20.10;44.10;;;;;;6216612;28;20511;-71
2021/01/15 05:04:58;;;;;;;1.15;0.90;;;20.10;44.20;;;;;;6220930;28;20042;-70
2021/01/15 05:08:13;;;;;;;0.98;0.90;;;20.10;43.20;;;;;;6221949;28;20129;-71
2021/01/15 05:11:14;;;;;;;0.90;0.70;;;20.10;42.90;;;;;;6221543;28;20048;-71
2021/01/15 05:14:16;;;;;;;1.05;0.85;;;20.20;42.90;;;;;;6220927;28;20778;-70
2021/01/15 05:17:17;;;;;;;1.05;0.80;;;20.20;42.90;;;;;;6221805;28;20040;-71
2021/01/15 05:20:21;;;;;;;1.25;0.80;;;20.20;42.90;;;;;;6221125;28;20105;-71
2021/01/15 05:23:22;;;;;;;0.73;0.63;;;20.20;42.80;;;;;;6221397;28;20037;-71
2021/01/15 05:26:24;;;;;;;0.80;0.80;;;20.20;42.90;;;;;;6221526;28;20397;-70
2021/01/15 05:29:25;;;;;;;0.77;0.68;;;20.20;43.50;;;;;;6220804;28;20068;-71
2021/01/15 05:32:29;;;;;;;0.70;0.60;;;20.30;42.90;;;;;;6220414;28;20496;-71
2021/01/15 05:35:47;;;;;;;1.00;0.90;;;20.30;42.90;;;;;;6220960;28;20484;-70
2021/01/15 05:39:08;;;;;;;0.80;0.70;;;20.30;42.90;;;;;;6221116;28;20377;-70
2021/01/15 05:42:09;;;;;;;0.60;0.60;;;20.30;42.90;;;;;;6220790;28;20492;-71
2021/01/15 05:45:13;;;;;;;1.23;0.80;;;20.30;42.80;;;;;;6221187;28;20076;-70
2021/01/15 05:48:14;;;;;;;0.70;0.60;;;20.30;42.80;;;;;;6221304;28;20033;-70
2021/01/15 05:51:27;;;;;;;0.85;0.80;;;20.30;42.80;;;;;;6220462;28;20301;-71
2021/01/15 05:54:30;;;;;;;0.68;0.60;;;20.30;42.80;;;;;;6220588;28;20446;-71
2021/01/15 05:57:31;;;;;;;0.60;0.57;;;20.30;42.80;;;;;;6220893;28;20025;-71
2021/01/15 06:00:32;;;;;;;0.63;0.63;;;20.30;42.90;;;;;;6220206;28;20053;-71
2021/01/15 06:03:33;;;;;;;1.00;0.80;;;20.30;42.90;;;;;;6220405;28;20025;-71
2021/01/15 06:06:35;;;;;;;1.40;0.73;;;20.30;42.90;;;;;;6220301;28;20507;-71
2021/01/15 06:09:40;;;;;;;0.90;0.70;;;20.40;42.60;;;;;;6219625;28;20038;-70
2021/01/15 06:12:41;;;;;;;0.88;0.80;;;20.50;42.40;;;;;;6217937;28;20096;-71
2021/01/15 06:15:46;;;;;;;1.15;0.68;;;20.60;42.60;;;;;;6219015;28;20026;-71
2021/01/15 06:19:01;;;;;;;0.90;0.70;;;20.70;42.30;;;;;;6220055;28;20038;-71
2021/01/15 06:22:02;;;;;;;1.03;0.73;;;20.80;42.30;;;;;;6219768;28;20197;-71
2021/01/15 06:25:22;;;;;;;1.15;0.90;;;20.90;42.30;;;;;;6223564;28;20034;-71
2021/01/15 06:28:32;;;;;;;0.85;0.70;;;20.90;42.30;;;;;;6220449;28;20030;-70
2021/01/15 06:31:48;;;;;;;0.80;0.70;;;21.00;42.40;;;;;;6219348;28;20041;-71
2021/01/15 06:34:49;;;;;;;0.65;0.57;;;21.10;42.20;;;;;;6219537;28;20064;-71
2021/01/15 06:37:59;;;;;;;0.52;0.52;;;21.10;42.10;;;;;;6220014;28;20026;-71
2021/01/15 06:40:59;;;;;;;0.85;0.80;;;21.20;42.20;;;;;;6223580;28;20488;-71
2021/01/15 06:44:11;;;;;;;1.25;0.80;;;21.20;42.10;;;;;;6224212;28;20049;-71
2021/01/15 06:47:21;;;;;;;0.75;0.70;;;21.20;42.10;;;;;;6223446;28;20116;-71
2021/01/15 06:50:21;;;;;;;1.40;0.80;;;21.30;42.10;;;;;;6225638;28;20057;-71
2021/01/15 06:53:28;;;;;;;0.90;0.80;;;21.30;42.10;;;;;;6247820;28;20029;-71
2021/01/15 06:56:37;;;;;;;1.13;0.60;;;21.30;42.10;;;;;;6237217;28;20030;-71
2021/01/15 06:59:40;;;;;;;0.50;0.50;;;21.40;42.10;;;;;;6220484;28;20025;-71
2021/01/15 07:03:19;;;;;;;0.75;0.60;;;21.40;42.10;;;;;;6223796;28;20030;-71
2021/01/15 07:06:47;;;;;;;1.98;0.60;;;21.40;42.00;;;;;;6223617;28;20084;-72
2021/01/15 07:09:48;;;;;;;1.92;0.60;;;21.50;42.00;;;;;;6220882;28;20033;-72
2021/01/15 07:12:55;;;;;;;0.80;0.80;;;21.60;41.90;;;;;;6222553;28;20080;-71
2021/01/15 07:15:57;;;;;;;5.57;0.60;;;21.60;41.80;;;;;;6238672;28;20045;-71
2021/01/15 07:19:15;;;;;;;5.38;0.70;;;21.70;41.70;;;;;;6247366;28;20094;-73
2021/01/15 07:22:20;;;;;;;6.35;1.08;;;21.70;41.70;;;;;;6227909;28;20026;-70
2021/01/15 07:25:21;;;;;;;1.80;0.80;;;21.80;41.70;;;;;;6220789;28;20035;-71
2021/01/15 07:28:22;;;;;;;1.23;0.60;;;21.80;41.80;;;;;;6222958;28;20288;-71
2021/01/15 07:31:24;;;;;;;5.85;1.05;;;21.80;41.80;;;;;;6221330;28;20038;-69
2021/01/15 07:34:26;;;;;;;4.10;1.02;;;21.80;41.70;;;;;;6224109;28;20034;-71
2021/01/15 07:37:29;;;;;;;1.33;1.15;;;21.80;41.70;;;;;;6221520;28;20045;-70
2021/01/15 07:40:34;;;;;;;8.55;1.73;;;21.60;39.80;;;;;;6228394;28;20076;-72
2021/01/15 07:43:34;;;;;;;6.47;1.45;;;21.40;40.00;;;;;;6233138;28;20054;-70
2021/01/15 07:46:49;;;;;;;3.40;1.63;;;21.50;39.70;;;;;;6232198;28;20998;-70
2021/01/15 07:49:49;;;;;;;3.28;1.42;;;21.50;39.30;;;;;;6232790;28;20037;-70
2021/01/15 07:53:11;;;;;;;6.15;1.45;;;21.60;39.50;;;;;;6233591;28;20037;-70
2021/01/15 07:56:12;;;;;;;3.10;1.30;;;21.60;39.90;;;;;;6232821;28;20058;-70
2021/01/15 07:59:28;;;;;;;2.28;1.23;;;21.60;40.00;;;;;;6232237;28;20143;-70
2021/01/15 08:02:28;;;;;;;3.08;1.10;;;21.60;40.10;;;;;;6234529;28;20061;-70
2021/01/15 08:05:29;;;;;;;1.17;1.00;;;21.50;40.40;;;;;;6234195;28;20073;-70
2021/01/15 08:08:29;;;;;;;1.25;1.00;;;21.50;40.40;;;;;;6231481;28;20089;-70
2021/01/15 08:11:31;;;;;;;1.55;0.90;;;21.50;40.50;;;;;;6232361;28;20116;-70
2021/01/15 08:14:32;;;;;;;2.53;1.30;;;21.50;40.60;;;;;;6231013;28;20117;-70
2021/01/15 08:17:33;;;;;;;1.10;1.00;;;21.50;40.80;;;;;;6231092;28;20030;-70
2021/01/15 08:20:34;;;;;;;1.63;1.15;;;21.50;40.80;;;;;;6230408;28;20037;-71
2021/01/15 08:23:35;;;;;;;1.27;0.98;;;21.50;40.90;;;;;;6230677;28;20038;-70
2021/01/15 08:26:55;;;;;;;0.93;0.80;;;21.50;40.90;;;;;;6230023;28;20044;-70
2021/01/15 08:30:04;;;;;;;2.10;1.13;;;21.50;41.00;;;;;;6230688;28;20114;-70
2021/01/15 08:33:05;;;;;;;2.03;1.13;;;21.50;41.00;;;;;;6232595;28;20052;-70
2021/01/15 08:36:06;;;;;;;1.52;1.10;;;21.50;41.00;;;;;;6227512;28;20093;-70
2021/01/15 08:39:08;;;;;;;2.78;0.93;;;21.50;41.10;;;;;;6228203;28;20030;-70
2021/01/15 08:42:09;;;;;;;2.30;0.90;;;21.40;40.90;;;;;;6230990;28;20030;-70
2021/01/15 08:45:11;;;;;;;1.45;0.82;;;21.40;40.90;;;;;;6228210;28;20053;-70
2021/01/15 08:48:13;;;;;;;1.20;0.90;;;21.50;41.10;;;;;;6229002;28;20042;-70
2021/01/15 08:51:19;;;;;;;0.68;0.68;;;21.50;41.10;;;;;;6231745;28;20038;-70
2021/01/15 08:54:21;;;;;;;18.33;1.55;;;21.50;41.10;;;;;;6215315;28;20091;-69
2021/01/15 08:57:29;;;;;;;8.48;1.20;;;21.50;41.10;;;;;;6220195;28;20044;-71
2021/01/15 09:00:33;;;;;;;2.67;1.15;;;21.60;41.10;;;;;;6218053;28;20439;-70
2021/01/15 09:03:34;;;;;;;2.85;1.42;;;21.60;41.30;;;;;;6221528;28;20040;-72
2021/01/15 09:06:36;;;;;;;7.80;1.48;;;21.40;39.70;;;;;;6221550;28;20038;-71
2021/01/15 09:09:38;;;;;;;3.03;1.40;;;21.50;39.50;;;;;;6221136;28;20418;-72
2021/01/15 09:12:44;;;;;;;7.90;1.88;;;21.60;39.40;;;;;;6220342;28;20489;-71
2021/01/15 09:15:49;;;;;;;14.60;2.78;;;21.50;38.60;;;;;;6217497;28;20465;-69
2021/01/15 09:18:51;;;;;;;14.20;2.05;;;21.60;39.00;;;;;;6220384;28;20034;-70
2021/01/15 09:22:04;;;;;;;12.18;2.92;;;21.70;38.40;;;;;;6221911;28;20467;-73
2021/01/15 09:25:05;;;;;;;7.95;2.28;;;21.80;38.60;;;;;;6237134;28;20041;-71
2021/01/15 09:28:05;;;;;;;8.48;2.42;;;21.90;38.00;;;;;;6228149;28;20035;-70
2021/01/15 09:31:06;;;;;;;12.35;2.20;;;22.00;38.50;;;;;;6222946;28;20091;-69
2021/01/15 09:34:12;;;;;;;5.30;1.45;;;22.10;38.50;;;;;;6224920;28;20045;-71
2021/01/15 09:37:13;;;;;;;12.05;1.77;;;22.00;39.10;;;;;;6221784;28;20556;-68
2021/01/15 09:40:14;;;;;;;15.45;1.85;;;22.10;39.20;;;;;;6222548;28;20022;-72
2021/01/15 09:43:18;;;;;;;10.70;1.58;;;22.10;39.20;;;;;;6219629;28;20054;-73
2021/01/15 09:46:27;;;;;;;8.48;1.42;;;22.20;39.40;;;;;;6220088;28;20030;-73
2021/01/15 09:49:28;;;;;;;9.73;1.73;;;22.30;39.30;;;;;;6219570;28;20041;-73
2021/01/15 09:52:28;;;;;;;9.95;1.45;;;22.30;39.00;;;;;;6225800;28;20038;-72
2021/01/15 09:55:29;;;;;;;7.80;1.33;;;22.20;39.40;;;;;;6225991;28;20033;-74
2021/01/15 09:58:29;;;;;;;8.80;1.50;;;22.30;40.30;;;;;;6226008;28;20037;-74
2021/01/15 10:01:30;;;;;;;10.45;1.80;;;22.30;39.60;;;;;;6226591;28;20073;-72
2021/01/15 10:04:32;;;;;;;9.18;1.80;;;22.30;39.20;;;;;;6227189;28;20110;-73
2021/01/15 10:07:33;;;;;;;3.60;1.48;;;22.30;39.50;;;;;;6226148;28;20471;-75
2021/01/15 10:10:33;;;;;;;2.42;1.38;;;22.40;39.40;;;;;;6225771;28;20045;-74
2021/01/15 10:13:34;;;;;;;6.75;1.90;;;22.40;39.40;;;;;;6225360;28;20121;-72
2021/01/15 10:16:41;;;;;;;12.35;1.80;;;22.30;38.10;;;;;;6223581;28;20052;-72
2021/01/15 10:19:42;;;;;;;2.78;1.88;;;22.30;38.50;;;;;;6223978;28;20037;-74
2021/01/15 10:22:43;;;;;;;4.32;1.60;;;22.40;38.60;;;;;;6224536;28;20150;-73
2021/01/15 10:25:43;;;;;;;5.13;1.80;;;22.40;39.10;;;;;;6226554;28;20034;-79
2021/01/15 10:28:44;;;;;;;6.90;1.70;;;22.40;38.70;;;;;;6223607;28;20080;-78
2021/01/15 10:31:55;;;;;;;10.80;1.70;;;22.40;38.60;;;;;;6223174;28;20404;-76
2021/01/15 10:34:56;;;;;;;3.55;1.63;;;22.50;38.60;;;;;;6224129;28;20179;-75
2021/01/15 10:37:56;;;;;;;6.80;2.05;;;22.50;38.90;;;;;;6223342;28;20089;-78
2021/01/15 10:40:58;;;;;;;3.83;1.73;;;22.50;39.20;;;;;;6246475;28;20030;-75
2021/01/15 10:44:00;;;;;;;6.28;1.65;;;22.50;38.90;;;;;;6230400;28;20045;-74
2021/01/15 10:47:03;;;;;;;3.40;1.90;;;22.50;39.20;;;;;;6224760;28;20034;-81
2021/01/15 10:50:04;;;;;;;2.03;1.40;;;22.60;39.20;;;;;;6223398;28;20412;-78
2021/01/15 10:53:04;;;;;;;5.45;1.63;;;22.50;39.00;;;;;;6222975;28;20041;-78
2021/01/15 10:56:05;;;;;;;3.20;1.50;;;22.60;39.20;;;;;;6222114;28;20053;-80
2021/01/15 10:59:06;;;;;;;6.15;2.40;;;22.80;38.50;;;;;;6223518;28;20095;-76
2021/01/15 11:02:07;;;;;;;7.50;4.13;;;22.50;38.20;;;;;;6222689;28;20057;-80
2021/01/15 11:05:10;;;;;;;8.88;3.53;;;22.30;36.80;;;;;;6224035;28;20050;-81
2021/01/15 11:08:11;;;;;;;5.28;3.25;;;22.40;37.60;;;;;;6221480;28;20330;-78
2021/01/15 11:11:11;;;;;;;9.35;3.80;;;22.40;37.30;;;;;;6228819;28;20044;-79
2021/01/15 11:14:13;;;;;;;8.85;3.75;;;22.40;37.80;;;;;;6241131;23;20956;-57
2021/01/15 11:17:15;;;;;;;8.73;3.45;;;22.40;37.60;;;;;;6221477;28;20558;-51
2021/01/15 11:20:16;;;;;;;8.35;3.67;;;22.50;38.00;;;;;;6221182;28;20065;-61
2021/01/15 11:23:16;;;;;;;7.22;3.33;;;22.40;38.50;;;;;;6221028;28;20048;-49
2021/01/15 11:26:24;;;;;;;3.97;3.10;;;22.50;37.50;;;;;;6219047;28;20553;-52
2021/01/15 11:29:25;;;;;;;6.88;3.25;;;22.60;37.50;;;;;;6218719;28;20069;-53
2021/01/15 11:32:25;;;;;;;5.35;3.13;;;22.70;37.40;;;;;;6219467;28;20449;-52
2021/01/15 11:35:26;;;;;;;8.70;3.00;;;22.60;37.80;;;;;;6219395;28;20414;-55
2021/01/15 11:38:27;;;;;;;9.35;3.25;;;22.60;38.00;;;;;;6220616;28;20055;-48
2021/01/15 11:41:29;;;;;;;3.72;2.75;;;22.50;38.60;;;;;;6237874;28;20037;-49
2021/01/15 11:44:29;;;;;;;10.55;3.35;;;22.30;38.40;;;;;;6231756;28;20121;-52
2021/01/15 11:47:30;;;;;;;6.15;2.60;;;22.30;38.50;;;;;;6221335;28;20025;-50
2021/01/15 11:50:30;;;;;;;6.30;3.22;;;22.20;38.70;;;;;;6219943;28;20048;-53
2021/01/15 11:53:33;;;;;;;3.45;2.63;;;22.20;38.70;;;;;;6219866;28;20178;-49
2021/01/15 11:56:34;;;;;;;5.47;3.03;;;22.10;38.80;;;;;;6219165;28;20030;-51
2021/01/15 11:59:34;;;;;;;9.18;3.53;;;22.10;38.80;;;;;;6219586;28;20061;-53
2021/01/15 12:02:35;;;;;;;3.67;2.83;;;22.10;38.90;;;;;;6219384;28;20026;-48
2021/01/15 12:05:49;;;;;;;6.00;2.75;;;22.10;38.80;;;;;;6220504;28;20097;-51
2021/01/15 12:08:50;;;;;;;3.38;2.42;;;22.10;39.00;;;;;;6221432;28;20495;-51
2021/01/15 12:11:50;;;;;;;4.45;2.80;;;22.10;39.20;;;;;;6221379;28;20038;-52
2021/01/15 12:14:52;;;;;;;6.47;2.50;;;22.10;39.10;;;;;;6221062;28;20378;-56
2021/01/15 12:17:52;;;;;;;9.32;2.55;;;22.10;39.20;;;;;;6220411;28;20030;-57
2021/01/15 12:20:54;;;;;;;5.57;2.30;;;22.10;39.80;;;;;;6221659;28;20505;-61
2021/01/15 12:23:55;;;;;;;4.55;2.33;;;22.10;38.90;;;;;;6221560;28;20029;-58
2021/01/15 12:26:59;;;;;;;3.55;2.03;;;22.10;38.80;;;;;;6220019;28;20084;-60
2021/01/15 12:29:59;;;;;;;4.05;2.38;;;22.10;39.00;;;;;;6221478;28;20434;-58
2021/01/15 12:33:09;;;;;;;4.65;2.42;;;22.10;39.30;;;;;;6221403;28;20152;-57
2021/01/15 12:36:11;;;;;;;3.13;2.08;;;22.10;38.90;;;;;;6220945;28;20120;-54
2021/01/15 12:39:11;;;;;;;4.80;2.38;;;22.10;39.00;;;;;;6220295;28;20398;-50
2021/01/15 12:42:14;;;;;;;6.95;2.55;;;22.10;39.30;;;;;;6221418;28;20026;-58
2021/01/15 12:45:14;;;;;;;2.42;2.10;;;22.10;39.70;;;;;;6220952;28;20293;-55
2021/01/15 12:48:16;;;;;;;5.53;2.17;;;22.00;39.50;;;;;;6221281;28;20394;-57
2021/01/15 12:51:16;;;;;;;16.48;3.05;;;22.00;40.30;;;;;;6221182;28;20049;-56
2021/01/15 12:54:17;;;;;;;5.18;2.33;;;22.00;40.30;;;;;;6220829;28;20061;-56
2021/01/15 12:57:17;;;;;;;10.27;2.70;;;22.00;40.60;;;;;;6221145;28;20479;-59
2021/01/15 13:00:18;;;;;;;11.18;2.40;;;22.00;40.30;;;;;;6221247;28;20038;-59
2021/01/15 13:03:20;;;;;;;11.85;2.53;;;22.00;40.50;;;;;;6221256;28;20095;-58
2021/01/15 13:06:21;;;;;;;5.00;2.40;;;22.00;41.10;;;;;;6221143;28;20026;-57
2021/01/15 13:09:22;;;;;;;10.52;2.60;;;21.90;40.20;;;;;;6221123;28;20557;-59
2021/01/15 13:12:23;;;;;;;10.82;2.42;;;22.00;40.80;;;;;;6221187;28;20042;-61
2021/01/15 13:15:23;;;;;;;6.68;2.90;;;22.00;40.90;;;;;;6220634;28;20032;-59
2021/01/15 13:18:24;;;;;;;5.65;2.60;;;21.90;40.70;;;;;;6221036;28;20025;-60
2021/01/15 13:21:24;;;;;;;4.90;2.60;;;21.80;40.90;;;;;;6220953;28;20476;-60
2021/01/15 13:24:25;;;;;;;5.05;2.45;;;21.80;40.30;;;;;;6223025;28;20447;-59
2021/01/15 13:27:25;;;;;;;4.43;2.60;;;21.80;40.90;;;;;;6225686;28;20034;-54
2021/01/15 13:30:27;;;;;;;7.40;2.38;;;21.80;40.40;;;;;;6226121;28;20030;-52
2021/01/15 13:33:32;;;;;;;3.65;2.40;;;21.70;41.30;;;;;;6225978;28;20042;-58
2021/01/15 13:36:33;;;;;;;5.18;2.60;;;21.80;41.10;;;;;;6235678;28;20497;-54
2021/01/15 13:39:33;;;;;;;2.22;1.90;;;21.80;40.70;;;;;;6249507;28;20037;-61
2021/01/15 13:42:34;;;;;;;8.95;2.28;;;21.70;41.40;;;;;;6249401;28;20120;-61
2021/01/15 13:45:35;;;;;;;3.92;2.30;;;21.70;40.40;;;;;;6248813;28;20069;-51
2021/01/15 13:48:37;;;;;;;3.42;2.28;;;21.70;40.60;;;;;;6249678;28;20030;-55
2021/01/15 13:51:37;;;;;;;4.40;2.30;;;21.70;40.10;;;;;;6249334;28;20389;-52
2021/01/15 13:54:38;;;;;;;3.92;2.60;;;21.70;40.80;;;;;;6248634;28;20043;-57
2021/01/15 13:57:42;;;;;;;4.07;2.67;;;21.70;40.20;;;;;;6248934;28;20026;-53
2021/01/15 14:00:43;;;;;;;4.63;1.90;;;21.70;40.70;;;;;;6249132;28;20022;-56
2021/01/15 14:03:45;;;;;;;16.40;2.42;;;21.70;40.90;;;;;;6249503;28;20029;-56
2021/01/15 14:06:45;;;;;;;11.48;2.20;;;21.60;39.80;;;;;;6248061;28;20022;-56
2021/01/15 14:09:46;;;;;;;14.98;2.45;;;21.60;39.40;;;;;;6248867;28;20056;-61
2021/01/15 14:12:46;;;;;;;23.27;3.72;;;21.70;39.40;;;;;;6248535;28;20426;-55
2021/01/15 14:15:47;;;;;;;9.50;2.80;;;21.70;40.40;;;;;;6246702;28;20052;-50
2021/01/15 14:18:47;;;;;;;8.63;2.50;;;21.80;40.70;;;;;;6248812;28;20040;-58
2021/01/15 14:21:48;;;;;;;11.85;3.00;;;21.80;40.60;;;;;;6248461;28;20394;-58
2021/01/15 14:24:49;;;;;;;13.45;3.17;;;21.80;40.00;;;;;;6248113;28;20048;-57
2021/01/15 14:27:50;;;;;;;14.90;2.60;;;21.80;40.90;;;;;;6248190;28;20374;-54
2021/01/15 14:30:53;;;;;;;5.15;2.40;;;21.80;40.70;;;;;;6233103;28;20045;-58
2021/01/15 14:33:54;;;;;;;6.78;2.55;;;21.80;41.00;;;;;;6230972;28;20088;-59
2021/01/15 14:36:54;;;;;;;11.30;2.90;;;21.90;40.50;;;;;;6223477;28;20269;-59
2021/01/15 14:39:55;;;;;;;9.38;2.63;;;22.00;40.50;;;;;;6247829;28;20040;-67
2021/01/15 14:42:56;;;;;;;8.60;2.58;;;22.10;40.70;;;;;;6232316;28;20049;-64
2021/01/15 14:45:56;;;;;;;4.22;2.47;;;22.20;40.90;;;;;;6227361;28;20589;-57
2021/01/15 14:48:57;;;;;;;13.55;2.58;;;22.20;40.70;;;;;;6239665;28;20036;-67
2021/01/15 14:51:57;;;;;;;10.38;2.45;;;22.20;41.10;;;;;;6235661;28;20565;-58
2021/01/15 14:54:58;;;;;;;6.22;2.22;;;22.30;40.80;;;;;;6221405;28;20034;-65
2021/01/15 14:58:02;;;;;;;6.35;2.17;;;22.30;40.80;;;;;;6223135;28;20038;-57
2021/01/15 15:01:03;;;;;;;6.72;2.63;;;22.30;40.60;;;;;;6223391;28;20050;-64
2021/01/15 15:04:04;;;;;;;4.43;2.20;;;22.30;40.60;;;;;;6223068;28;20068;-64
2021/01/15 15:07:05;;;;;;;4.05;2.10;;;22.30;40.70;;;;;;6221425;28;20157;-60
2021/01/15 15:10:06;;;;;;;8.15;2.15;;;22.30;40.70;;;;;;6223106;28;20117;-61
2021/01/15 15:13:06;;;;;;;6.15;2.30;;;22.30;40.60;;;;;;6222532;28;20049;-56
2021/01/15 15:16:07;;;;;;;7.07;2.22;;;22.30;40.40;;;;;;6221936;28;20030;-58
2021/01/15 15:19:08;;;;;;;15.55;1.98;;;22.30;40.60;;;;;;6221048;28;20037;-57
2021/01/15 15:22:10;;;;;;;6.18;2.47;;;22.20;40.70;;;;;;6222683;28;20040;-63
2021/01/15 15:25:12;;;;;;;8.75;1.95;;;22.20;40.80;;;;;;6244626;28;20026;-54
2021/01/15 15:28:12;;;;;;;3.70;2.05;;;22.20;40.80;;;;;;6229193;28;20034;-57
2021/01/15 15:31:14;;;;;;;5.43;2.35;;;22.20;40.20;;;;;;6220826;28;20052;-64
2021/01/15 15:34:15;;;;;;;14.63;2.40;;;22.10;40.30;;;;;;6226072;28;20036;-52
2021/01/15 15:37:16;;;;;;;10.98;2.00;;;22.10;40.30;;;;;;6219614;28;20112;-59
2021/01/15 15:40:16;;;;;;;44.78;2.97;;;22.10;40.50;;;;;;6221314;28;20038;-59
2021/01/15 15:43:21;;;;;;;28.38;3.28;;;22.10;41.00;;;;;;6220639;28;20242;-64
2021/01/15 15:46:23;;;;;;;30.63;2.40;;;22.10;41.00;;;;;;6217997;28;20030;-54
2021/01/15 15:49:23;;;;;;;25.17;2.63;;;22.00;41.00;;;;;;6226844;28;20034;-59